Oologah, Oklahoma
Current Conditions -  °F | °C
As of 1:35 AM on Saturday 29 Nov 2014 (Local Time) from KGCM Reporting Station
Clear Clear  
Wind Chill: 52°   Ceiling: Unl
Heat Index: 52°   Visibility: 10mi
Dew Point: 46°   Wind: 9mph
Humidity: 82%   Direction: 170°S
Pressure: 29.83"   Gusts: NA
Location:  36.45°N, 95.71°W
Report Text: KGCM 290735Z AUTO 17008KT 10SM CLR 11/08 A2983 RMK AO2
Loading
Personal Weather Stations






























Interactive Weather Map New forecast layout! Learn more

10-Day Weather Forecast

Advertisements
Track Severe Weather on mobile